createdAt,value
2018-07-30T00:02:15.372Z,0.90
2018-07-30T00:04:43.072Z,1.07
2018-07-30T00:07:10.793Z,1.15
2018-07-30T00:09:38.556Z,0.90
2018-07-30T00:12:06.515Z,1.12
2018-07-30T00:16:59.722Z,1.02
2018-07-30T00:19:27.492Z,1.37
2018-07-30T00:21:55.241Z,0.90
2018-07-30T00:24:22.997Z,0.90
2018-07-30T00:26:50.756Z,1.02
2018-07-30T00:29:18.489Z,1.02
2018-07-30T00:31:47.308Z,1.10
2018-07-30T00:34:15.176Z,0.90
2018-07-30T00:37:26.483Z,1.27
2018-07-30T00:39:54.232Z,1.45
2018-07-30T00:42:21.994Z,1.40
2018-07-30T00:44:49.735Z,1.12
2018-07-30T00:47:17.478Z,1.37
2018-07-30T00:49:45.256Z,1.40
2018-07-30T00:52:13.998Z,1.92
2018-07-30T00:54:41.796Z,1.50
2018-07-30T00:57:09.496Z,1.45
2018-07-30T00:59:37.230Z,1.42
2018-07-30T01:02:05.018Z,1.17
2018-07-30T01:04:50.542Z,1.42
2018-07-30T01:07:26.099Z,0.82
2018-07-30T01:09:53.973Z,1.45
2018-07-30T01:12:21.911Z,1.67
2018-07-30T01:14:49.789Z,1.32
2018-07-30T01:17:17.784Z,1.07
2018-07-30T01:19:45.638Z,1.90
2018-07-30T01:22:13.583Z,1.52
2018-07-30T01:24:41.549Z,1.27
2018-07-30T01:27:09.578Z,1.55
2018-07-30T01:29:37.511Z,1.45
2018-07-30T01:32:05.831Z,1.32
2018-07-30T01:34:33.702Z,1.10
2018-07-30T01:37:01.606Z,1.57
2018-07-30T01:39:29.536Z,1.32
2018-07-30T01:41:57.560Z,1.30
2018-07-30T01:44:25.431Z,0.98
2018-07-30T01:46:53.339Z,1.37
2018-07-30T01:49:21.211Z,1.25
2018-07-30T01:51:49.081Z,1.27
2018-07-30T01:54:16.973Z,1.12
2018-07-30T01:56:44.920Z,1.20
2018-07-30T01:59:12.808Z,1.17
2018-07-30T02:01:40.809Z,1.12
2018-07-30T02:04:08.678Z,1.02
2018-07-30T02:06:36.612Z,1.30
2018-07-30T02:09:07.491Z,1.20
2018-07-30T02:11:35.241Z,2.00
2018-07-30T02:14:03.320Z,1.20
2018-07-30T02:16:32.054Z,1.17
2018-07-30T02:18:59.793Z,1.30
2018-07-30T02:21:27.731Z,1.37
2018-07-30T02:23:55.386Z,1.40
2018-07-30T02:26:23.152Z,1.20
2018-07-30T02:32:02.029Z,1.10
2018-07-30T02:34:29.794Z,1.25
2018-07-30T02:36:57.587Z,1.45
2018-07-30T02:39:25.399Z,1.40
2018-07-30T02:41:53.143Z,1.37
2018-07-30T02:44:20.921Z,1.60
2018-07-30T02:46:48.795Z,1.20
2018-07-30T02:49:16.609Z,2.33
2018-07-30T02:51:44.365Z,1.20
2018-07-30T02:54:12.163Z,1.67
2018-07-30T02:56:39.921Z,1.42
2018-07-30T02:59:07.751Z,1.20
2018-07-30T03:01:35.493Z,1.87
2018-07-30T03:04:03.257Z,1.72
2018-07-30T03:06:31.091Z,1.10
2018-07-30T03:08:58.814Z,1.42
2018-07-30T03:11:48.594Z,1.27
2018-07-30T03:14:16.361Z,1.42
2018-07-30T03:16:44.112Z,1.60
2018-07-30T03:19:11.842Z,1.50
2018-07-30T03:21:39.673Z,0.93
2018-07-30T03:24:07.440Z,1.15
2018-07-30T03:26:35.197Z,1.10
2018-07-30T03:29:02.960Z,1.85
2018-07-30T03:31:30.764Z,1.77
2018-07-30T03:33:58.500Z,1.30
2018-07-30T03:36:26.359Z,1.87
2018-07-30T03:38:54.150Z,1.40
2018-07-30T03:41:21.933Z,1.40
2018-07-30T03:43:49.754Z,1.42
2018-07-30T03:46:17.558Z,1.12
2018-07-30T03:48:45.327Z,1.37
2018-07-30T03:51:13.127Z,1.45
2018-07-30T03:53:40.917Z,1.50
2018-07-30T03:56:08.716Z,1.47
2018-07-30T03:58:36.460Z,1.32
2018-07-30T04:01:04.248Z,1.15
2018-07-30T04:03:32.009Z,1.30
2018-07-30T04:05:59.798Z,1.75
2018-07-30T04:08:28.524Z,1.10
2018-07-30T04:10:56.329Z,1.20
2018-07-30T04:13:24.091Z,1.67
2018-07-30T04:16:02.705Z,1.85
2018-07-30T04:22:14.549Z,1.98
2018-07-30T04:24:42.474Z,1.22
2018-07-30T04:27:10.410Z,1.85
2018-07-30T04:29:38.309Z,1.15
2018-07-30T04:32:06.242Z,1.80
2018-07-30T04:34:34.102Z,1.00
2018-07-30T04:37:02.150Z,1.50
2018-07-30T04:39:30.014Z,2.02
2018-07-30T04:41:57.917Z,1.32
2018-07-30T04:44:25.786Z,1.37
2018-07-30T04:46:53.704Z,1.30
2018-07-30T04:49:21.669Z,1.40
2018-07-30T04:51:50.531Z,1.15
2018-07-30T04:54:18.470Z,1.02
2018-07-30T04:56:47.371Z,1.20
2018-07-30T04:59:15.161Z,1.55
2018-07-30T05:01:43.131Z,1.12
2018-07-30T05:04:11.080Z,1.52
2018-07-30T05:06:44.428Z,1.40
2018-07-30T05:09:12.267Z,1.05
2018-07-30T05:11:40.656Z,0.90
2018-07-30T05:14:08.540Z,1.40
2018-07-30T05:16:36.441Z,0.80
2018-07-30T05:22:08.562Z,1.45
2018-07-30T05:24:38.364Z,1.55
2018-07-30T05:27:05.870Z,1.12
2018-07-30T05:29:33.751Z,1.00
2018-07-30T05:32:01.483Z,1.20
2018-07-30T05:34:29.204Z,1.55
2018-07-30T05:36:57.339Z,0.80
2018-07-30T05:39:46.054Z,1.20
2018-07-30T05:42:40.596Z,0.75
2018-07-30T05:45:08.373Z,1.10
2018-07-30T05:47:36.136Z,0.98
2018-07-30T05:50:04.297Z,0.85
2018-07-30T05:52:32.006Z,0.80
2018-07-30T05:54:59.762Z,0.80
2018-07-30T05:57:27.562Z,1.00
2018-07-30T05:59:55.321Z,1.12
2018-07-30T06:02:23.214Z,1.25
2018-07-30T06:04:51.007Z,1.02
2018-07-30T06:07:18.727Z,1.37
2018-07-30T06:09:46.549Z,0.85
2018-07-30T06:12:14.248Z,1.07
2018-07-30T06:14:42.002Z,1.00
2018-07-30T06:17:09.802Z,1.10
2018-07-30T06:20:17.983Z,0.80
2018-07-30T06:22:45.980Z,1.00
2018-07-30T06:25:13.852Z,1.15
2018-07-30T06:27:42.116Z,1.05
2018-07-30T06:30:10.273Z,1.00
2018-07-30T06:32:38.385Z,0.60
2018-07-30T06:35:06.327Z,0.88
2018-07-30T06:37:35.355Z,0.75
2018-07-30T06:40:03.263Z,0.70
2018-07-30T06:42:31.137Z,0.70
2018-07-30T06:44:58.971Z,1.02
2018-07-30T06:47:26.760Z,0.70
2018-07-30T06:49:54.524Z,0.62
2018-07-30T06:52:22.347Z,0.60
2018-07-30T06:54:50.299Z,0.60
2018-07-30T06:57:18.193Z,0.60
2018-07-30T06:59:45.951Z,0.70
2018-07-30T07:02:24.526Z,0.80
2018-07-30T07:05:13.720Z,0.50
2018-07-30T07:07:41.607Z,0.60
2018-07-30T07:10:10.887Z,0.50
2018-07-30T07:12:38.831Z,0.60
2018-07-30T07:15:08.843Z,0.70
2018-07-30T07:17:37.871Z,0.70
2018-07-30T07:20:06.056Z,0.50
2018-07-30T07:22:33.986Z,0.60
2018-07-30T07:25:01.917Z,0.68
2018-07-30T07:27:29.820Z,0.80
2018-07-30T07:29:57.761Z,0.82
2018-07-30T07:32:25.635Z,0.70
2018-07-30T07:34:53.479Z,0.65
2018-07-30T07:37:21.446Z,0.60
2018-07-30T07:39:49.385Z,0.80
2018-07-30T07:42:17.265Z,0.60
2018-07-30T07:44:45.188Z,0.70
2018-07-30T07:47:13.068Z,0.70
2018-07-30T07:49:40.962Z,0.70
2018-07-30T07:52:09.969Z,0.68
2018-07-30T07:54:37.856Z,0.60
2018-07-30T07:57:05.828Z,1.17
2018-07-30T07:59:33.769Z,0.68
2018-07-30T08:02:01.691Z,0.62
2018-07-30T08:04:29.636Z,0.60
2018-07-30T08:06:57.514Z,0.50
2018-07-30T08:09:26.318Z,0.50
2018-07-30T08:11:54.084Z,0.55
2018-07-30T08:14:21.842Z,0.50
2018-07-30T08:16:49.595Z,0.80
2018-07-30T08:19:17.357Z,0.53
2018-07-30T08:21:45.175Z,0.80
2018-07-30T08:24:12.977Z,0.60
2018-07-30T08:27:18.220Z,0.80
2018-07-30T08:29:46.144Z,0.60
2018-07-30T08:32:16.015Z,0.50
2018-07-30T08:34:43.935Z,0.95
2018-07-30T08:37:11.870Z,0.50
2018-07-30T08:39:39.810Z,0.47
2018-07-30T08:42:08.786Z,0.50
2018-07-30T08:44:36.719Z,0.55
2018-07-30T08:47:05.008Z,0.40
2018-07-30T08:49:32.914Z,1.85
2018-07-30T08:52:00.998Z,0.70
2018-07-30T08:54:28.960Z,0.40
2018-07-30T08:56:56.943Z,0.47
2018-07-30T08:59:25.637Z,0.50
2018-07-30T09:01:53.608Z,0.50
2018-07-30T09:04:21.673Z,0.53
2018-07-30T09:06:49.620Z,1.12
2018-07-30T09:09:17.595Z,0.40
2018-07-30T09:11:45.747Z,0.42
2018-07-30T09:14:13.719Z,0.30
2018-07-30T09:16:42.010Z,0.60
2018-07-30T09:19:09.977Z,1.00
2018-07-30T09:21:38.095Z,0.50
2018-07-30T09:24:05.973Z,1.10
2018-07-30T09:26:42.607Z,0.82
2018-07-30T09:29:10.593Z,0.50
2018-07-30T09:31:38.522Z,0.50
2018-07-30T09:34:06.394Z,0.68
2018-07-30T09:36:34.273Z,0.70
2018-07-30T09:39:02.406Z,0.60
2018-07-30T09:41:30.321Z,0.47
2018-07-30T09:43:58.186Z,0.50
2018-07-30T09:46:26.065Z,0.50
2018-07-30T09:48:54.010Z,0.50
2018-07-30T09:51:21.920Z,0.47
2018-07-30T09:53:49.817Z,0.50
2018-07-30T09:56:17.843Z,0.55
2018-07-30T09:58:45.855Z,0.50
2018-07-30T10:01:19.284Z,0.53
2018-07-30T10:03:47.181Z,0.40
2018-07-30T10:06:15.124Z,0.50
2018-07-30T10:08:42.969Z,0.50
2018-07-30T10:11:11.082Z,0.60
2018-07-30T10:13:39.049Z,0.50
2018-07-30T10:16:06.926Z,0.42
2018-07-30T10:18:35.805Z,0.60
2018-07-30T10:21:03.610Z,0.40
2018-07-30T10:23:31.359Z,0.40
2018-07-30T10:25:59.084Z,0.47
2018-07-30T10:28:26.869Z,0.50
2018-07-30T10:30:54.649Z,0.30
2018-07-30T10:33:22.452Z,0.28
2018-07-30T10:35:50.546Z,0.30
2018-07-30T10:38:18.863Z,0.20
2018-07-30T10:40:46.671Z,0.45
2018-07-30T10:43:57.039Z,0.33
2018-07-30T10:47:04.477Z,0.45
2018-07-30T10:49:32.306Z,0.30
2018-07-30T10:52:00.069Z,0.35
2018-07-30T10:54:27.875Z,0.20
2018-07-30T10:56:55.714Z,0.23
2018-07-30T10:59:23.508Z,0.53
2018-07-30T11:01:51.289Z,0.30
2018-07-30T11:04:19.100Z,0.30
2018-07-30T11:06:47.012Z,0.30
2018-07-30T11:09:14.828Z,0.30
2018-07-30T11:11:42.645Z,0.30
2018-07-30T11:14:10.402Z,0.40
2018-07-30T11:16:38.210Z,0.30
2018-07-30T11:19:05.955Z,0.40
2018-07-30T11:21:33.830Z,0.40
2018-07-30T11:24:01.612Z,0.40
2018-07-30T11:26:29.572Z,0.30
2018-07-30T11:28:57.506Z,0.65
2018-07-30T11:31:30.865Z,0.40
2018-07-30T11:33:58.792Z,0.30
2018-07-30T11:36:26.729Z,0.40
2018-07-30T11:38:54.669Z,0.40
2018-07-30T11:41:24.634Z,0.40
2018-07-30T11:43:52.537Z,0.30
2018-07-30T11:46:20.496Z,0.40
2018-07-30T11:48:48.407Z,0.40
2018-07-30T11:51:20.121Z,0.30
2018-07-30T11:53:48.025Z,0.33
2018-07-30T11:56:15.990Z,0.40
2018-07-30T11:58:43.911Z,0.60
2018-07-30T12:01:13.874Z,0.33
2018-07-30T12:03:41.727Z,0.40
2018-07-30T12:06:09.644Z,0.30
2018-07-30T12:08:37.828Z,0.30
2018-07-30T12:11:06.756Z,0.40
2018-07-30T12:13:34.683Z,0.33
2018-07-30T12:16:05.608Z,0.42
2018-07-30T12:18:33.498Z,0.40
2018-07-30T12:21:01.515Z,0.50
2018-07-30T12:23:29.398Z,0.40
2018-07-30T12:26:05.854Z,0.20
2018-07-30T12:28:33.743Z,0.30
2018-07-30T12:31:05.320Z,0.40
2018-07-30T12:33:33.208Z,0.80
2018-07-30T12:36:00.999Z,0.40
2018-07-30T12:38:28.762Z,0.40
2018-07-30T12:40:56.505Z,0.37
2018-07-30T12:43:24.234Z,0.40
2018-07-30T12:45:52.002Z,0.30
2018-07-30T12:48:19.727Z,0.50
2018-07-30T12:50:47.539Z,0.62
2018-07-30T12:53:15.423Z,0.37
2018-07-30T12:55:44.854Z,0.33
2018-07-30T12:58:12.823Z,0.40
2018-07-30T13:00:40.672Z,1.72
2018-07-30T13:03:09.530Z,0.30
2018-07-30T13:05:37.307Z,0.50
2018-07-30T13:08:06.145Z,0.20
2018-07-30T13:10:33.909Z,0.30
2018-07-30T13:13:01.712Z,0.40
2018-07-30T13:15:29.485Z,0.20
2018-07-30T13:17:57.283Z,0.30
2018-07-30T13:20:25.047Z,0.30
2018-07-30T13:22:52.774Z,0.30
2018-07-30T13:25:20.614Z,0.28
2018-07-30T13:27:48.435Z,0.35
2018-07-30T13:30:17.258Z,5.92
2018-07-30T13:32:45.069Z,0.30
2018-07-30T13:35:12.900Z,0.30
2018-07-30T13:37:40.717Z,0.30
2018-07-30T13:40:08.481Z,0.30
2018-07-30T13:42:36.324Z,0.40
2018-07-30T13:45:04.715Z,0.30
2018-07-30T13:47:32.513Z,13.75
2018-07-30T13:50:00.377Z,0.30
2018-07-30T13:52:28.131Z,0.30
2018-07-30T13:54:55.903Z,0.40
2018-07-30T13:57:23.674Z,0.40
2018-07-30T13:59:56.071Z,0.40
2018-07-30T14:02:24.093Z,1.57
2018-07-30T14:04:51.914Z,0.40
2018-07-30T14:07:19.683Z,0.20
2018-07-30T14:12:37.890Z,0.40
2018-07-30T14:15:06.188Z,0.40
2018-07-30T14:17:33.964Z,0.40
2018-07-30T14:20:02.866Z,0.30
2018-07-30T14:22:30.654Z,0.30
2018-07-30T14:24:58.480Z,0.62
2018-07-30T14:27:26.274Z,0.47
2018-07-30T14:29:54.050Z,0.40
2018-07-30T14:32:21.809Z,0.40
2018-07-30T14:34:49.634Z,0.50
2018-07-30T14:37:17.403Z,0.30
2018-07-30T14:39:45.254Z,0.50
2018-07-30T14:42:13.040Z,0.45
2018-07-30T14:44:40.862Z,0.40
2018-07-30T14:47:08.671Z,0.35
2018-07-30T14:49:36.405Z,0.30
2018-07-30T14:52:04.257Z,0.30
2018-07-30T14:54:32.210Z,0.55
2018-07-30T14:57:26.498Z,0.50
2018-07-30T14:59:54.630Z,0.30
2018-07-30T15:02:22.400Z,0.30
2018-07-30T15:04:50.294Z,0.45
2018-07-30T15:07:18.147Z,0.40
2018-07-30T15:09:49.677Z,0.30
2018-07-30T15:12:17.796Z,0.30
2018-07-30T15:14:45.566Z,0.30
2018-07-30T15:17:13.359Z,0.30
2018-07-30T15:19:41.130Z,0.30
2018-07-30T15:22:08.878Z,0.40
2018-07-30T15:24:36.686Z,0.30
2018-07-30T15:27:04.523Z,0.37
2018-07-30T15:29:32.296Z,0.42
2018-07-30T15:32:00.059Z,0.23
2018-07-30T15:34:27.970Z,0.35
2018-07-30T15:36:55.922Z,0.30
2018-07-30T15:39:23.742Z,0.30
2018-07-30T15:41:51.679Z,0.30
2018-07-30T15:44:19.619Z,0.37
2018-07-30T15:46:47.483Z,0.60
2018-07-30T15:49:15.260Z,0.40
2018-07-30T15:51:43.016Z,0.30
2018-07-30T15:54:10.764Z,0.60
2018-07-30T15:56:38.508Z,0.70
2018-07-30T15:59:06.416Z,0.30
2018-07-30T16:01:34.311Z,0.30
2018-07-30T16:04:03.267Z,0.47
2018-07-30T16:06:31.282Z,0.30
2018-07-30T16:08:59.136Z,0.42
2018-07-30T16:11:27.010Z,0.23
2018-07-30T16:13:54.759Z,0.30
2018-07-30T16:16:52.597Z,0.50
2018-07-30T16:19:20.394Z,0.40
2018-07-30T16:21:48.192Z,0.30
2018-07-30T16:24:16.032Z,0.37
2018-07-30T16:26:43.808Z,0.40
2018-07-30T16:29:37.895Z,0.62
2018-07-30T16:32:06.706Z,0.30
2018-07-30T16:34:34.467Z,0.40
2018-07-30T16:37:02.234Z,0.40
2018-07-30T16:39:29.963Z,5.72
2018-07-30T16:41:57.895Z,1.65
2018-07-30T16:44:25.733Z,0.50
2018-07-30T16:46:53.594Z,0.63
2018-07-30T16:49:21.474Z,1.00
2018-07-30T16:51:49.331Z,0.80
2018-07-30T16:54:17.128Z,0.70
2018-07-30T16:56:45.134Z,0.70
2018-07-30T17:02:42.392Z,1.00
2018-07-30T17:05:17.001Z,1.35
2018-07-30T17:07:45.028Z,1.62
2018-07-30T17:10:15.209Z,1.55
2018-07-30T17:12:43.230Z,2.02
2018-07-30T17:15:12.220Z,2.02
2018-07-30T17:17:40.188Z,2.30
2018-07-30T17:20:11.224Z,2.42
2018-07-30T17:22:39.757Z,2.80
2018-07-30T17:25:09.666Z,3.08
2018-07-30T17:27:37.660Z,2.85
2018-07-30T17:30:07.432Z,3.27
2018-07-30T17:32:35.383Z,3.02
2018-07-30T17:35:03.557Z,1.27
2018-07-30T17:37:31.492Z,0.95
2018-07-30T17:39:59.475Z,1.15
2018-07-30T17:42:27.448Z,0.68
2018-07-30T17:44:55.485Z,0.90
2018-07-30T17:47:23.384Z,0.80
2018-07-30T17:49:51.384Z,0.95
2018-07-30T17:52:19.308Z,0.80
2018-07-30T17:54:47.301Z,0.70
2018-07-30T17:57:15.113Z,1.10
2018-07-30T17:59:42.942Z,1.05
2018-07-30T18:02:10.716Z,1.07
2018-07-30T18:04:38.474Z,1.25
2018-07-30T18:07:06.262Z,1.35
2018-07-30T18:09:34.102Z,1.50
2018-07-30T18:12:01.902Z,1.07
2018-07-30T18:14:29.672Z,1.17
2018-07-30T18:16:57.449Z,1.10
2018-07-30T18:19:26.258Z,1.10
2018-07-30T18:21:54.054Z,1.17
2018-07-30T18:24:21.902Z,1.40
2018-07-30T18:26:49.719Z,1.10
2018-07-30T18:29:17.536Z,1.05
2018-07-30T18:31:45.298Z,1.52
2018-07-30T18:34:13.205Z,1.52
2018-07-30T18:36:49.431Z,1.07
2018-07-30T18:39:17.291Z,1.22
2018-07-30T18:41:45.256Z,1.10
2018-07-30T18:44:26.446Z,1.00
2018-07-30T18:46:54.329Z,1.00
2018-07-30T18:49:23.059Z,1.72
2018-07-30T18:51:50.983Z,1.20
2018-07-30T18:54:19.029Z,1.77
2018-07-30T18:56:47.011Z,1.40
2018-07-30T18:59:15.013Z,1.37
2018-07-30T19:01:42.926Z,1.35
2018-07-30T19:04:10.963Z,1.40
2018-07-30T19:06:38.888Z,1.25
2018-07-30T19:09:07.896Z,1.02
2018-07-30T19:11:35.899Z,0.88
2018-07-30T19:14:03.994Z,1.20
2018-07-30T19:16:31.964Z,1.50
2018-07-30T19:19:00.037Z,1.07
2018-07-30T19:21:27.966Z,1.65
2018-07-30T19:23:56.198Z,1.30
2018-07-30T19:26:24.164Z,1.72
2018-07-30T19:28:52.091Z,2.10
2018-07-30T19:31:20.072Z,1.72
2018-07-30T19:33:48.107Z,2.05
2018-07-30T19:36:16.040Z,2.08
2018-07-30T19:38:44.040Z,2.20
2018-07-30T19:41:11.978Z,2.50
2018-07-30T19:46:06.752Z,2.58
2018-07-30T19:48:34.567Z,3.05
2018-07-30T19:51:02.369Z,3.70
2018-07-30T19:53:33.770Z,3.98
2018-07-30T19:56:01.624Z,4.50
2018-07-30T19:58:29.667Z,5.05
2018-07-30T20:00:57.302Z,5.15
2018-07-30T20:03:33.406Z,4.92
2018-07-30T20:06:01.446Z,5.47
2018-07-30T20:08:29.213Z,5.22
2018-07-30T20:10:56.907Z,4.78
2018-07-30T20:13:24.767Z,4.95
2018-07-30T20:15:52.507Z,6.87
2018-07-30T20:18:20.238Z,5.95
2018-07-30T20:20:48.037Z,6.45
2018-07-30T20:23:15.902Z,6.37
2018-07-30T20:25:43.647Z,6.20
2018-07-30T20:28:11.423Z,5.45
2018-07-30T20:30:39.203Z,5.55
2018-07-30T20:33:07.204Z,5.37
2018-07-30T20:35:35.035Z,6.30
2018-07-30T20:38:02.829Z,7.65
2018-07-30T20:40:30.664Z,6.45
2018-07-30T20:42:58.470Z,7.80
2018-07-30T20:45:26.500Z,7.10
2018-07-30T20:47:54.351Z,10.20
2018-07-30T20:50:22.170Z,10.88
2018-07-30T20:53:14.444Z,7.33
2018-07-30T20:55:42.274Z,7.28
2018-07-30T20:58:10.066Z,8.58
2018-07-30T21:00:37.927Z,12.33
2018-07-30T21:03:05.713Z,9.73
2018-07-30T21:05:38.016Z,9.58
2018-07-30T21:08:05.812Z,8.33
2018-07-30T21:10:33.594Z,8.35
2018-07-30T21:13:01.379Z,8.78
2018-07-30T21:15:29.160Z,9.53
2018-07-30T21:17:56.945Z,7.25
2018-07-30T21:20:24.730Z,8.15
2018-07-30T21:22:52.542Z,6.47
2018-07-30T21:25:20.296Z,7.58
2018-07-30T21:27:49.102Z,6.42
2018-07-30T21:30:17.005Z,8.23
2018-07-30T21:32:44.948Z,8.88
2018-07-30T21:35:12.710Z,8.43
2018-07-30T21:37:40.495Z,8.90
2018-07-30T21:40:08.334Z,8.28
2018-07-30T21:42:37.121Z,8.23
2018-07-30T21:45:04.882Z,8.20
2018-07-30T21:47:32.634Z,8.75
2018-07-30T21:50:00.371Z,10.15
2018-07-30T21:52:28.143Z,14.70
2018-07-30T21:54:55.857Z,9.83
2018-07-30T21:57:23.582Z,8.73
2018-07-30T21:59:51.334Z,8.50
2018-07-30T22:02:19.230Z,8.20
2018-07-30T22:04:59.449Z,8.40
2018-07-30T22:07:27.704Z,6.72
2018-07-30T22:09:56.043Z,8.50
2018-07-30T22:12:24.378Z,9.10
2018-07-30T22:14:52.719Z,8.85
2018-07-30T22:17:21.060Z,8.18
2018-07-30T22:19:50.403Z,7.60
2018-07-30T22:22:18.726Z,6.28
2018-07-30T22:24:47.052Z,7.05
2018-07-30T22:27:15.409Z,7.87
2018-07-30T22:29:44.722Z,6.65
2018-07-30T22:32:13.089Z,6.37
2018-07-30T22:34:41.408Z,5.97
2018-07-30T22:37:09.860Z,6.05
2018-07-30T22:39:38.189Z,6.22
2018-07-30T22:42:06.561Z,6.08
2018-07-30T22:44:34.944Z,7.03
2018-07-30T22:47:03.308Z,7.12
2018-07-30T22:49:31.585Z,6.85
2018-07-30T22:51:59.877Z,8.15
2018-07-30T22:54:28.196Z,8.13
2018-07-30T22:56:56.478Z,9.15
2018-07-30T22:59:24.774Z,7.33
2018-07-30T23:01:53.127Z,7.95
2018-07-30T23:04:21.469Z,7.87
2018-07-30T23:06:49.798Z,9.75
2018-07-30T23:09:18.138Z,9.80
2018-07-30T23:11:46.476Z,10.03
2018-07-30T23:14:14.800Z,10.63
2018-07-30T23:16:43.206Z,9.08
2018-07-30T23:19:11.502Z,8.28
2018-07-30T23:21:39.841Z,7.40
2018-07-30T23:24:08.229Z,7.10
2018-07-30T23:26:36.523Z,8.80
2018-07-30T23:29:04.828Z,8.05
2018-07-30T23:31:33.129Z,8.63
2018-07-30T23:34:01.463Z,7.03
2018-07-30T23:36:29.824Z,8.20
2018-07-30T23:38:58.169Z,7.25
2018-07-30T23:41:26.459Z,6.97
2018-07-30T23:43:54.744Z,7.55
2018-07-30T23:46:23.118Z,8.43
2018-07-30T23:48:51.495Z,8.70
2018-07-30T23:51:19.882Z,8.58
2018-07-30T23:53:48.253Z,9.53
2018-07-30T23:56:16.543Z,9.68
2018-07-30T23:58:44.787Z,9.80
